Time;durP1;ratioP1;P1;durP2;ratioP2;P2;SDS_P1;SDS_P2;PMS_P1;PMS_P2;Temp;Humidity;BMP_temperature;BMP_pressure;BME280_temperature;BME280_humidity;BME280_pressure;Samples;Min_cycle;Max_cycle;Signal;HPM_P1;HPM_P2
2021/10/22 00:00:43;;;;;;;4.43;1.37;;;;;;;;;;5000257;28;20265;-77
2021/10/22 00:03:08;;;;;;;5.00;1.17;;;;;;;;;;4998073;28;20269;-76
2021/10/22 00:05:33;;;;;;;11.70;1.73;;;;;;;;;;5000356;28;20182;-76
2021/10/22 00:07:59;;;;;;;5.43;1.10;;;;;;;;;;4998092;28;20288;-76
2021/10/22 00:10:25;;;;;;;9.63;1.70;;;;;;;;;;4996446;28;20200;-76
2021/10/22 00:12:50;;;;;;;6.73;1.50;;;;;;;;;;5001110;28;21037;-76
2021/10/22 00:15:15;;;;;;;4.93;1.53;;;;;;;;;;5001450;28;20170;-78
2021/10/22 00:17:41;;;;;;;8.40;2.00;;;;;;;;;;5005119;28;20220;-76
2021/10/22 00:20:07;;;;;;;8.07;1.80;;;;;;;;;;5000121;28;20173;-76
2021/10/22 00:22:35;;;;;;;6.90;2.00;;;;;;;;;;4998962;28;20220;-79
2021/10/22 00:25:00;;;;;;;7.10;1.60;;;;;;;;;;5001005;28;20438;-79
2021/10/22 00:27:25;;;;;;;6.93;1.50;;;;;;;;;;5000596;28;20448;-77
2021/10/22 00:29:50;;;;;;;4.17;1.13;;;;;;;;;;5003528;28;20190;-76
2021/10/22 00:32:16;;;;;;;8.87;1.23;;;;;;;;;;5000886;28;20243;-77
2021/10/22 00:34:41;;;;;;;11.27;1.93;;;;;;;;;;5001175;28;20208;-76
2021/10/22 00:37:06;;;;;;;3.97;1.30;;;;;;;;;;4999197;28;20577;-77
2021/10/22 00:39:31;;;;;;;7.63;1.77;;;;;;;;;;5000969;28;20184;-77
2021/10/22 00:41:57;;;;;;;9.23;1.67;;;;;;;;;;5000148;28;20638;-76
2021/10/22 00:44:22;;;;;;;8.87;1.63;;;;;;;;;;4998294;28;20652;-76
2021/10/22 00:46:47;;;;;;;5.60;1.60;;;;;;;;;;4999256;28;20263;-76
2021/10/22 00:49:13;;;;;;;10.83;2.50;;;;;;;;;;5000136;28;20186;-77
2021/10/22 00:51:39;;;;;;;8.40;2.20;;;;;;;;;;4998026;28;20738;-76
2021/10/22 00:54:05;;;;;;;8.03;1.50;;;;;;;;;;5000128;28;20303;-76
2021/10/22 00:56:31;;;;;;;4.90;1.50;;;;;;;;;;4998593;28;20624;-77
2021/10/22 00:58:57;;;;;;;12.07;2.20;;;;;;;;;;4997458;28;20472;-77
2021/10/22 01:01:22;;;;;;;8.83;1.97;;;;;;;;;;4997901;28;20510;-76
2021/10/22 01:03:47;;;;;;;9.50;2.10;;;;;;;;;;4999834;28;20178;-79
2021/10/22 01:06:12;;;;;;;8.13;2.10;;;;;;;;;;4996898;28;20200;-76
2021/10/22 01:08:38;;;;;;;8.00;2.70;;;;;;;;;;4996243;28;20209;-77
2021/10/22 01:11:03;;;;;;;7.27;2.27;;;;;;;;;;5000744;28;20680;-77
2021/10/22 01:13:29;;;;;;;9.47;2.07;;;;;;;;;;5000484;28;20209;-77
2021/10/22 01:15:54;;;;;;;8.03;1.80;;;;;;;;;;4997628;28;20188;-77
2021/10/22 01:18:20;;;;;;;8.90;2.27;;;;;;;;;;4998469;28;20224;-77
2021/10/22 01:20:45;;;;;;;11.80;2.00;;;;;;;;;;4997188;28;20189;-76
2021/10/22 01:23:10;;;;;;;10.63;1.67;;;;;;;;;;4998681;28;20228;-77
2021/10/22 01:25:36;;;;;;;6.10;1.50;;;;;;;;;;4995398;28;20203;-77
2021/10/22 01:28:02;;;;;;;7.33;1.80;;;;;;;;;;4997727;28;20197;-76
2021/10/22 01:30:28;;;;;;;13.77;2.80;;;;;;;;;;4999414;28;20186;-77
2021/10/22 01:32:56;;;;;;;11.70;2.17;;;;;;;;;;4997709;28;20470;-77
2021/10/22 01:35:22;;;;;;;6.17;1.60;;;;;;;;;;4996325;28;20190;-76
2021/10/22 01:37:48;;;;;;;6.97;1.97;;;;;;;;;;4995743;28;20459;-76
2021/10/22 01:40:13;;;;;;;7.03;1.70;;;;;;;;;;4999834;28;20212;-76
2021/10/22 01:42:38;;;;;;;8.07;1.97;;;;;;;;;;4993829;28;20474;-76
2021/10/22 01:45:05;;;;;;;12.13;2.07;;;;;;;;;;4998945;28;20185;-77
2021/10/22 01:47:30;;;;;;;6.73;1.50;;;;;;;;;;4995923;28;20562;-76
2021/10/22 01:49:55;;;;;;;8.83;1.73;;;;;;;;;;4998514;28;20447;-76
2021/10/22 01:52:21;;;;;;;9.10;1.60;;;;;;;;;;4998930;28;20722;-77
2021/10/22 01:54:46;;;;;;;8.20;1.67;;;;;;;;;;4999984;28;20197;-76
2021/10/22 01:57:12;;;;;;;11.00;2.10;;;;;;;;;;4996690;28;20251;-77
2021/10/22 01:59:37;;;;;;;16.10;2.73;;;;;;;;;;4994358;28;20190;-76
2021/10/22 02:02:03;;;;;;;13.53;1.70;;;;;;;;;;4997034;28;20185;-76
2021/10/22 02:04:28;;;;;;;8.60;1.90;;;;;;;;;;4996608;28;20192;-77
2021/10/22 02:06:54;;;;;;;10.33;1.90;;;;;;;;;;4997229;28;20832;-76
2021/10/22 02:09:19;;;;;;;9.37;2.27;;;;;;;;;;4996055;28;20552;-76
2021/10/22 02:11:45;;;;;;;6.80;1.90;;;;;;;;;;4998637;28;20184;-76
2021/10/22 02:14:11;;;;;;;7.60;1.90;;;;;;;;;;4997981;28;20198;-77
2021/10/22 02:16:36;;;;;;;6.37;1.63;;;;;;;;;;4992140;28;20428;-76
2021/10/22 02:19:01;;;;;;;7.70;1.97;;;;;;;;;;4997548;28;20200;-76
2021/10/22 02:21:27;;;;;;;9.43;1.60;;;;;;;;;;4995927;28;20185;-76
2021/10/22 02:23:52;;;;;;;12.50;2.50;;;;;;;;;;5004410;28;20182;-76
2021/10/22 02:26:18;;;;;;;14.27;3.10;;;;;;;;;;4998430;28;20637;-77
2021/10/22 02:28:43;;;;;;;10.33;2.57;;;;;;;;;;4997437;28;20209;-76
2021/10/22 02:31:08;;;;;;;10.07;2.37;;;;;;;;;;4997210;28;20185;-76
2021/10/22 02:33:33;;;;;;;9.67;2.13;;;;;;;;;;4998414;28;20194;-76
2021/10/22 02:35:59;;;;;;;4.70;2.10;;;;;;;;;;5000696;28;20187;-77
2021/10/22 02:38:24;;;;;;;5.53;1.83;;;;;;;;;;4996006;28;20201;-76
2021/10/22 02:40:49;;;;;;;7.00;1.90;;;;;;;;;;4998537;28;20543;-77
2021/10/22 02:43:14;;;;;;;9.20;1.90;;;;;;;;;;4996780;28;20276;-76
2021/10/22 02:45:40;;;;;;;7.53;1.93;;;;;;;;;;4997412;28;20404;-75
2021/10/22 02:48:05;;;;;;;8.93;1.83;;;;;;;;;;4995363;28;20196;-77
2021/10/22 02:50:30;;;;;;;9.43;2.50;;;;;;;;;;4995053;28;20191;-76
2021/10/22 02:52:59;;;;;;;7.17;1.80;;;;;;;;;;4998229;28;20243;-76
2021/10/22 02:55:24;;;;;;;8.90;1.60;;;;;;;;;;4995266;28;20209;-76
2021/10/22 02:57:49;;;;;;;9.33;2.30;;;;;;;;;;4995607;28;20534;-77
2021/10/22 03:00:15;;;;;;;8.03;1.63;;;;;;;;;;4996310;28;20649;-76
2021/10/22 03:02:40;;;;;;;12.07;2.47;;;;;;;;;;4994941;28;20332;-77
2021/10/22 03:05:07;;;;;;;10.63;2.13;;;;;;;;;;4994694;28;20174;-77
2021/10/22 03:07:32;;;;;;;9.20;2.33;;;;;;;;;;4994544;28;20205;-76
2021/10/22 03:09:57;;;;;;;13.17;2.40;;;;;;;;;;4996067;28;20429;-77
2021/10/22 03:12:22;;;;;;;9.27;2.03;;;;;;;;;;4994243;28;20324;-76
2021/10/22 03:14:48;;;;;;;12.00;2.40;;;;;;;;;;4996203;28;20838;-77
2021/10/22 03:17:13;;;;;;;11.43;2.37;;;;;;;;;;4992275;28;20552;-76
2021/10/22 03:19:38;;;;;;;11.40;2.00;;;;;;;;;;4995693;28;20173;-76
2021/10/22 03:22:03;;;;;;;11.40;2.33;;;;;;;;;;4995638;28;20180;-76
2021/10/22 03:24:29;;;;;;;11.20;2.83;;;;;;;;;;4995953;28;20268;-76
2021/10/22 03:26:54;;;;;;;9.23;2.00;;;;;;;;;;4995228;28;20213;-76
2021/10/22 03:29:19;;;;;;;8.93;1.90;;;;;;;;;;4989681;28;20273;-76
2021/10/22 03:31:47;;;;;;;13.53;2.40;;;;;;;;;;4995067;28;20185;-76
2021/10/22 03:34:12;;;;;;;7.00;1.93;;;;;;;;;;4996153;28;20202;-76
2021/10/22 03:36:37;;;;;;;10.20;2.10;;;;;;;;;;4995794;28;20451;-76
2021/10/22 03:39:03;;;;;;;7.17;1.90;;;;;;;;;;4993017;28;20269;-76
2021/10/22 03:41:29;;;;;;;8.57;2.40;;;;;;;;;;4995839;28;20271;-76
2021/10/22 03:43:54;;;;;;;10.67;2.60;;;;;;;;;;4996929;28;20917;-76
2021/10/22 03:46:19;;;;;;;9.90;2.47;;;;;;;;;;4993845;28;20287;-76
2021/10/22 03:48:45;;;;;;;10.00;2.03;;;;;;;;;;4994056;28;20194;-76
2021/10/22 03:51:10;;;;;;;7.87;2.43;;;;;;;;;;4995197;28;20194;-77
2021/10/22 03:53:35;;;;;;;9.17;2.53;;;;;;;;;;4993917;28;20292;-76
2021/10/22 03:56:00;;;;;;;11.30;2.50;;;;;;;;;;4994252;28;21241;-76
2021/10/22 03:58:26;;;;;;;6.67;2.07;;;;;;;;;;4993833;28;20198;-76
2021/10/22 04:00:51;;;;;;;14.23;2.20;;;;;;;;;;4994702;28;20178;-76
2021/10/22 04:03:16;;;;;;;10.70;1.73;;;;;;;;;;5000053;28;20606;-76
2021/10/22 04:05:43;;;;;;;10.23;2.00;;;;;;;;;;4996993;28;20178;-76
2021/10/22 04:08:08;;;;;;;9.97;2.33;;;;;;;;;;4998441;28;20216;-76
2021/10/22 04:10:34;;;;;;;9.90;2.63;;;;;;;;;;5000951;28;20451;-76
2021/10/22 04:13:00;;;;;;;11.50;2.10;;;;;;;;;;4997943;28;20276;-76
2021/10/22 04:15:26;;;;;;;11.27;2.40;;;;;;;;;;5000691;28;20224;-77
2021/10/22 04:17:51;;;;;;;9.20;1.87;;;;;;;;;;5000285;28;20696;-76
2021/10/22 04:20:16;;;;;;;6.00;2.10;;;;;;;;;;4999786;28;20674;-76
2021/10/22 04:22:43;;;;;;;9.83;1.90;;;;;;;;;;4998364;28;20184;-76
2021/10/22 04:25:08;;;;;;;6.90;1.73;;;;;;;;;;4998940;28;20177;-75
2021/10/22 04:27:35;;;;;;;8.27;1.67;;;;;;;;;;5000241;28;20456;-76
2021/10/22 04:30:01;;;;;;;9.90;2.00;;;;;;;;;;5001918;28;20715;-77
2021/10/22 04:32:26;;;;;;;5.87;1.77;;;;;;;;;;4999696;28;20512;-77
2021/10/22 04:34:51;;;;;;;11.13;1.80;;;;;;;;;;5001140;28;20205;-78
2021/10/22 04:38:02;;;;;;;7.30;1.83;;;;;;;;;;4996656;28;20189;-77
2021/10/22 04:42:52;;;;;;;16.20;3.43;;;;;;;;;;4996144;28;20502;-76
2021/10/22 04:45:18;;;;;;;9.40;2.13;;;;;;;;;;5001183;28;20432;-76
2021/10/22 04:47:43;;;;;;;9.50;2.50;;;;;;;;;;4998071;28;20216;-76
2021/10/22 04:50:10;;;;;;;11.93;2.43;;;;;;;;;;4998845;28;20435;-77
2021/10/22 04:52:35;;;;;;;9.03;2.10;;;;;;;;;;5000699;28;20182;-78
2021/10/22 04:55:01;;;;;;;7.07;2.03;;;;;;;;;;4998972;28;20526;-77
2021/10/22 04:57:26;;;;;;;9.13;1.80;;;;;;;;;;4996433;28;20506;-76
2021/10/22 04:59:52;;;;;;;12.77;2.70;;;;;;;;;;4996263;28;20178;-76
2021/10/22 05:02:17;;;;;;;5.87;1.63;;;;;;;;;;4998645;28;20697;-76
2021/10/22 05:04:42;;;;;;;10.90;1.90;;;;;;;;;;4999794;28;20190;-76
2021/10/22 05:07:07;;;;;;;9.00;2.10;;;;;;;;;;4999295;28;20208;-76
2021/10/22 05:09:33;;;;;;;6.33;1.80;;;;;;;;;;4999849;28;20185;-78
2021/10/22 05:11:59;;;;;;;6.03;1.80;;;;;;;;;;5001444;28;20272;-77
2021/10/22 05:14:25;;;;;;;6.83;1.70;;;;;;;;;;4999681;28;20289;-78
2021/10/22 05:16:50;;;;;;;7.80;1.33;;;;;;;;;;4998133;28;20905;-77
2021/10/22 05:19:15;;;;;;;8.77;1.73;;;;;;;;;;4999287;28;20414;-77
2021/10/22 05:21:41;;;;;;;6.90;1.47;;;;;;;;;;5002338;28;20170;-78
2021/10/22 05:24:06;;;;;;;4.97;1.53;;;;;;;;;;4998170;28;20186;-76
2021/10/22 05:26:31;;;;;;;7.40;1.90;;;;;;;;;;5000156;28;20210;-78
2021/10/22 05:28:56;;;;;;;7.60;1.80;;;;;;;;;;5001818;28;20239;-77
2021/10/22 05:31:22;;;;;;;6.30;1.53;;;;;;;;;;4997145;28;20285;-77
2021/10/22 05:33:47;;;;;;;7.47;2.10;;;;;;;;;;5000138;28;20233;-76
2021/10/22 05:36:12;;;;;;;5.47;1.77;;;;;;;;;;4998698;28;20265;-76
2021/10/22 05:38:37;;;;;;;7.03;2.03;;;;;;;;;;4998534;28;20216;-76
2021/10/22 05:41:03;;;;;;;9.67;1.93;;;;;;;;;;4997587;28;20260;-77
2021/10/22 05:43:28;;;;;;;9.30;1.80;;;;;;;;;;4997471;28;20193;-76
2021/10/22 05:45:53;;;;;;;7.77;2.00;;;;;;;;;;4996574;28;20189;-78
2021/10/22 05:48:18;;;;;;;10.30;2.20;;;;;;;;;;4998761;28;20216;-77
2021/10/22 05:50:44;;;;;;;8.23;1.77;;;;;;;;;;5000015;28;20176;-78
2021/10/22 05:53:09;;;;;;;8.83;2.00;;;;;;;;;;4999374;28;20219;-76
2021/10/22 05:55:34;;;;;;;17.33;2.67;;;;;;;;;;4998528;28;20232;-77
2021/10/22 05:57:59;;;;;;;7.87;1.90;;;;;;;;;;4997936;28;20196;-76
2021/10/22 06:00:25;;;;;;;7.67;1.57;;;;;;;;;;4999153;28;20173;-78
2021/10/22 06:02:55;;;;;;;10.50;2.60;;;;;;;;;;4999979;28;20178;-78
2021/10/22 06:05:20;;;;;;;8.47;1.77;;;;;;;;;;5001202;28;20188;-77
2021/10/22 06:07:45;;;;;;;7.17;1.87;;;;;;;;;;4997788;28;20472;-77
2021/10/22 06:10:11;;;;;;;5.73;1.60;;;;;;;;;;4998702;28;20177;-76
2021/10/22 06:12:36;;;;;;;10.57;1.90;;;;;;;;;;4996807;28;20177;-77
2021/10/22 06:15:01;;;;;;;5.67;1.80;;;;;;;;;;5000947;28;20299;-76
2021/10/22 06:17:27;;;;;;;5.90;1.87;;;;;;;;;;4997089;28;20204;-77
2021/10/22 06:19:56;;;;;;;12.20;1.50;;;;;;;;;;4999104;28;20178;-78
2021/10/22 06:23:53;;;;;;;7.40;2.10;;;;;;;;;;4996010;28;20238;-76
2021/10/22 06:25:25;;;;;;;8.77;1.50;;;;;;;;;;4998268;28;22060;-76
2021/10/22 06:27:50;;;;;;;7.57;1.70;;;;;;;;;;5000731;28;20459;-76
2021/10/22 06:30:16;;;;;;;6.80;1.87;;;;;;;;;;4999867;28;20212;-75
2021/10/22 06:32:41;;;;;;;15.30;2.10;;;;;;;;;;5001693;28;20315;-76
2021/10/22 06:35:07;;;;;;;7.50;1.90;;;;;;;;;;4993257;28;20441;-76
2021/10/22 06:37:32;;;;;;;7.00;1.40;;;;;;;;;;4996125;28;20205;-76
2021/10/22 06:39:58;;;;;;;6.40;1.67;;;;;;;;;;4999566;28;20483;-76
2021/10/22 06:42:23;;;;;;;6.07;1.87;;;;;;;;;;4998577;28;20184;-77
2021/10/22 06:44:48;;;;;;;12.13;1.63;;;;;;;;;;4996760;28;20185;-76
2021/10/22 06:47:14;;;;;;;6.73;1.97;;;;;;;;;;4994090;28;20263;-76
2021/10/22 06:49:40;;;;;;;9.60;2.00;;;;;;;;;;4998980;28;20185;-76
2021/10/22 06:52:06;;;;;;;12.33;1.97;;;;;;;;;;4997764;28;20447;-77
2021/10/22 06:54:31;;;;;;;6.17;2.03;;;;;;;;;;4996549;28;20698;-77
2021/10/22 06:56:56;;;;;;;6.43;1.47;;;;;;;;;;4998076;28;20289;-79
2021/10/22 06:59:22;;;;;;;5.93;1.60;;;;;;;;;;5002901;28;20191;-77
2021/10/22 07:01:47;;;;;;;10.83;1.90;;;;;;;;;;5000784;28;20248;-77
2021/10/22 07:20:12;;;;;;;4.67;1.30;;;;;;;;;;5019071;28;20534;-75
2021/10/22 07:22:46;;;;;;;6.60;1.40;;;;;;;;;;5024916;28;20864;-73
2021/10/22 07:25:11;;;;;;;4.13;1.30;;;;;;;;;;5021844;28;20427;-74
2021/10/22 07:27:36;;;;;;;6.60;1.40;;;;;;;;;;5008156;28;20452;-73
2021/10/22 07:30:01;;;;;;;4.23;1.40;;;;;;;;;;5003314;28;20180;-74
2021/10/22 07:32:27;;;;;;;4.30;1.67;;;;;;;;;;5001995;28;20625;-74
2021/10/22 07:34:52;;;;;;;4.47;1.10;;;;;;;;;;5008006;28;20234;-75
2021/10/22 08:14:34;;;;;;;9.47;2.00;;;;;;;;;;6184895;22;1285260;-74
2021/10/22 08:17:00;;;;;;;5.33;1.83;;;;;;;;;;6247729;23;20358;-75
2021/10/22 08:19:25;;;;;;;7.73;1.80;;;;;;;;;;6247723;23;20428;-76
2021/10/22 08:22:25;;;;;;;11.17;1.90;;;;;;;;;;6222460;23;20151;-76
2021/10/22 08:24:42;;;;;;;8.90;2.43;;;;;;;;;;6230503;23;20250;-75
2021/10/22 08:27:08;;;;;;;8.10;2.37;;;;;;;;;;6220947;23;20386;-76
2021/10/22 08:29:34;;;;;;;5.93;1.73;;;;;;;;;;6220596;23;20198;-76
2021/10/22 08:32:00;;;;;;;11.77;1.80;;;;;;;;;;6221377;23;20509;-78
2021/10/22 08:34:26;;;;;;;5.50;1.70;;;;;;;;;;6194213;23;20413;-76
2021/10/22 08:36:51;;;;;;;10.40;2.63;;;;;;;;;;6220501;23;20151;-75
2021/10/22 08:39:17;;;;;;;6.80;1.90;;;;;;;;;;6220367;23;20155;-77
2021/10/22 08:41:45;;;;;;;3.43;1.20;;;;;;;;;;6220965;23;20215;-76
2021/10/22 08:44:10;;;;;;;3.77;1.30;;;;;;;;;;6219549;23;20160;-75
2021/10/22 08:46:36;;;;;;;6.70;1.47;;;;;;;;;;6220861;23;20441;-76
2021/10/22 08:49:02;;;;;;;5.67;1.50;;;;;;;;;;6220634;23;20640;-76
2021/10/22 08:51:28;;;;;;;4.10;1.30;;;;;;;;;;6220591;23;20370;-76
2021/10/22 08:53:53;;;;;;;7.00;1.57;;;;;;;;;;6220829;23;20163;-78
2021/10/22 08:56:19;;;;;;;8.13;1.60;;;;;;;;;;6221056;23;20673;-77
2021/10/22 08:58:44;;;;;;;10.07;1.43;;;;;;;;;;6220559;23;20171;-77
2021/10/22 09:01:10;;;;;;;9.00;2.27;;;;;;;;;;6220768;23;20735;-75
2021/10/22 09:03:39;;;;;;;8.13;1.70;;;;;;;;;;6220472;23;20160;-77
2021/10/22 09:06:09;;;;;;;9.30;2.03;;;;;;;;;;6197299;23;20155;-76
2021/10/22 09:08:38;;;;;;;11.53;2.03;;;;;;;;;;6221124;23;20783;-78
2021/10/22 09:11:04;;;;;;;8.43;1.90;;;;;;;;;;6218497;23;21164;-78
2021/10/22 09:13:30;;;;;;;9.97;2.43;;;;;;;;;;6189577;23;20965;-78
2021/10/22 09:15:58;;;;;;;13.30;2.10;;;;;;;;;;6247964;23;20401;-79
2021/10/22 09:18:26;;;;;;;9.67;2.53;;;;;;;;;;6220441;23;20386;-79
2021/10/22 09:20:52;;;;;;;15.47;2.13;;;;;;;;;;6244830;23;20498;-77
2021/10/22 09:23:28;;;;;;;6.33;1.63;;;;;;;;;;6246412;22;20363;-78
2021/10/22 09:26:11;;;;;;;12.50;1.80;;;;;;;;;;6244447;23;20840;-77
2021/10/22 09:28:37;;;;;;;10.20;1.93;;;;;;;;;;6245748;23;20338;-78
2021/10/22 09:31:07;;;;;;;9.27;2.50;;;;;;;;;;6243915;23;20405;-75
2021/10/22 09:33:33;;;;;;;10.57;2.07;;;;;;;;;;6243702;22;20147;-77
2021/10/22 09:35:58;;;;;;;8.60;2.33;;;;;;;;;;6216069;23;20435;-78
2021/10/22 09:38:25;;;;;;;10.63;1.83;;;;;;;;;;6243652;23;20147;-77
2021/10/22 09:40:53;;;;;;;8.33;1.83;;;;;;;;;;6244153;23;20629;-76
2021/10/22 09:43:26;;;;;;;7.13;2.40;;;;;;;;;;6215974;22;20748;-77
2021/10/22 09:46:07;;;;;;;9.87;1.63;;;;;;;;;;6242417;23;20363;-77
2021/10/22 09:48:32;;;;;;;13.67;1.80;;;;;;;;;;6242287;23;20378;-76
2021/10/22 09:51:18;;;;;;;13.57;2.00;;;;;;;;;;6243729;23;20377;-76
2021/10/22 09:53:45;;;;;;;4.67;1.60;;;;;;;;;;6226415;22;20240;-78
2021/10/22 09:56:17;;;;;;;7.40;1.60;;;;;;;;;;6244052;23;20859;-76
2021/10/22 09:58:52;;;;;;;11.57;1.90;;;;;;;;;;6243330;23;20481;-78
2021/10/22 10:01:18;;;;;;;9.87;2.63;;;;;;;;;;6243198;23;20886;-76
2021/10/22 10:03:43;;;;;;;13.60;3.03;;;;;;;;;;6242318;22;20378;-76
2021/10/22 10:06:09;;;;;;;10.23;1.90;;;;;;;;;;6243147;23;20362;-76
2021/10/22 10:08:37;;;;;;;17.80;2.67;;;;;;;;;;6243260;23;20146;-75
2021/10/22 10:11:03;;;;;;;14.90;2.77;;;;;;;;;;6243284;23;20148;-77
2021/10/22 10:13:35;;;;;;;13.37;3.53;;;;;;;;;;6240882;22;20375;-76
2021/10/22 10:16:01;;;;;;;12.77;3.27;;;;;;;;;;6242754;23;20711;-77
2021/10/22 10:18:28;;;;;;;12.10;2.60;;;;;;;;;;6243797;23;20392;-76
2021/10/22 10:20:54;;;;;;;14.67;3.13;;;;;;;;;;6243969;23;20419;-76
2021/10/22 10:23:19;;;;;;;21.47;3.20;;;;;;;;;;6243299;22;20367;-78
2021/10/22 10:25:45;;;;;;;8.60;2.67;;;;;;;;;;6243743;23;20420;-76
2021/10/22 10:28:10;;;;;;;10.70;2.23;;;;;;;;;;6243629;23;20140;-78
2021/10/22 10:30:39;;;;;;;8.80;2.53;;;;;;;;;;6243441;23;20147;-77
2021/10/22 10:33:05;;;;;;;10.70;2.30;;;;;;;;;;6243298;23;20151;-78
2021/10/22 10:35:35;;;;;;;15.10;2.37;;;;;;;;;;6243978;22;20390;-77
2021/10/22 10:38:00;;;;;;;18.20;2.70;;;;;;;;;;6243659;23;20708;-78
2021/10/22 10:40:26;;;;;;;14.07;3.00;;;;;;;;;;6242949;23;20410;-76
2021/10/22 10:42:53;;;;;;;14.07;2.33;;;;;;;;;;6243288;23;20143;-77
2021/10/22 10:45:23;;;;;;;5.17;1.90;;;;;;;;;;6243049;22;20378;-76
2021/10/22 10:47:59;;;;;;;9.70;1.90;;;;;;;;;;6243159;23;20366;-78
2021/10/22 10:50:33;;;;;;;15.23;3.00;;;;;;;;;;6243731;23;20879;-77
2021/10/22 10:52:59;;;;;;;16.07;2.13;;;;;;;;;;6244126;23;20370;-78
2021/10/22 10:55:36;;;;;;;10.63;2.30;;;;;;;;;;6243805;22;20440;-78
2021/10/22 10:58:07;;;;;;;9.53;2.23;;;;;;;;;;6244026;23;20217;-79
2021/10/22 11:00:34;;;;;;;5.80;1.30;;;;;;;;;;6215854;23;20771;-78
2021/10/22 11:03:03;;;;;;;7.70;1.60;;;;;;;;;;6244177;23;20430;-79
2021/10/22 11:05:40;;;;;;;5.93;1.30;;;;;;;;;;6242529;22;20382;-79
2021/10/22 11:08:24;;;;;;;8.07;1.50;;;;;;;;;;6243693;23;20366;-79
2021/10/22 11:10:57;;;;;;;4.30;1.20;;;;;;;;;;6244679;23;20753;-79
2021/10/22 11:13:23;;;;;;;11.67;1.67;;;;;;;;;;6242580;22;20367;-77
2021/10/22 11:15:49;;;;;;;6.97;1.60;;;;;;;;;;6242968;23;20393;-80
2021/10/22 11:18:15;;;;;;;8.60;1.33;;;;;;;;;;6243594;23;20374;-80
2021/10/22 11:20:40;;;;;;;9.20;1.87;;;;;;;;;;6243375;23;20406;-79
2021/10/22 11:23:10;;;;;;;5.17;1.20;;;;;;;;;;6242450;23;20362;-79
2021/10/22 11:25:36;;;;;;;5.30;1.33;;;;;;;;;;6242664;22;20166;-79
2021/10/22 11:28:06;;;;;;;6.10;1.23;;;;;;;;;;6242896;23;20759;-79
2021/10/22 11:30:32;;;;;;;7.50;1.63;;;;;;;;;;6243510;23;20143;-78
2021/10/22 11:33:00;;;;;;;10.20;1.60;;;;;;;;;;6242566;23;20370;-79
2021/10/22 11:35:28;;;;;;;8.67;2.10;;;;;;;;;;6243786;22;20171;-78
2021/10/22 11:38:01;;;;;;;15.43;2.13;;;;;;;;;;6241058;23;20851;-79
2021/10/22 11:40:27;;;;;;;8.90;2.20;;;;;;;;;;6243347;23;20429;-78
2021/10/22 11:42:52;;;;;;;13.37;2.83;;;;;;;;;;6242865;23;20858;-78
2021/10/22 11:45:20;;;;;;;10.67;2.50;;;;;;;;;;6243466;22;20560;-77
2021/10/22 11:47:50;;;;;;;12.87;2.07;;;;;;;;;;6215939;23;20151;-78
2021/10/22 11:50:26;;;;;;;8.03;2.10;;;;;;;;;;6243252;23;20394;-77
2021/10/22 11:52:57;;;;;;;10.63;1.80;;;;;;;;;;6241914;23;20747;-79
2021/10/22 11:55:23;;;;;;;9.80;1.90;;;;;;;;;;6241671;22;20422;-77
2021/10/22 11:57:49;;;;;;;8.60;2.00;;;;;;;;;;6243517;23;20445;-78
2021/10/22 12:00:15;;;;;;;8.43;2.10;;;;;;;;;;6242377;23;20976;-76
2021/10/22 12:02:42;;;;;;;8.73;1.83;;;;;;;;;;6215556;23;20373;-77
2021/10/22 12:05:08;;;;;;;9.40;2.00;;;;;;;;;;6241502;22;20600;-78
2021/10/22 12:07:37;;;;;;;7.60;2.10;;;;;;;;;;6242969;23;20458;-77
2021/10/22 12:10:04;;;;;;;8.80;1.80;;;;;;;;;;6242801;23;20390;-79
2021/10/22 12:12:37;;;;;;;8.03;1.33;;;;;;;;;;6242833;23;20760;-78
2021/10/22 12:15:03;;;;;;;6.70;1.60;;;;;;;;;;6241020;22;20412;-78
2021/10/22 12:17:29;;;;;;;19.87;3.70;;;;;;;;;;6242750;23;20367;-79
2021/10/22 12:19:58;;;;;;;8.03;2.10;;;;;;;;;;6243594;23;21164;-79
2021/10/22 12:22:31;;;;;;;12.77;2.60;;;;;;;;;;6242971;23;20143;-78
2021/10/22 12:25:03;;;;;;;6.93;1.90;;;;;;;;;;6242958;22;20389;-78
2021/10/22 12:27:29;;;;;;;6.07;1.63;;;;;;;;;;6242246;23;20347;-77
2021/10/22 12:29:59;;;;;;;6.57;1.90;;;;;;;;;;6242473;23;20445;-77
2021/10/22 12:32:27;;;;;;;6.50;1.77;;;;;;;;;;6241935;23;20199;-77
2021/10/22 12:34:54;;;;;;;8.10;2.13;;;;;;;;;;6242114;22;20424;-78
2021/10/22 12:37:19;;;;;;;6.43;1.40;;;;;;;;;;6241586;23;20369;-77
2021/10/22 12:39:46;;;;;;;27.00;3.23;;;;;;;;;;6241645;23;20914;-78
2021/10/22 12:42:22;;;;;;;3.70;1.03;;;;;;;;;;6241549;23;20143;-77
2021/10/22 12:44:48;;;;;;;1.90;1.03;;;;;;;;;;6241462;22;20438;-77
2021/10/22 12:47:13;;;;;;;4.50;1.10;;;;;;;;;;6244066;23;20445;-76
2021/10/22 12:49:39;;;;;;;2.37;0.93;;;;;;;;;;6244701;23;20155;-78
2021/10/22 12:52:05;;;;;;;3.33;0.83;;;;;;;;;;6245055;23;20151;-77
2021/10/22 12:54:43;;;;;;;1.73;0.80;;;;;;;;;;6243957;22;20895;-77
2021/10/22 12:57:19;;;;;;;5.87;1.47;;;;;;;;;;6244831;23;20210;-77
2021/10/22 12:59:44;;;;;;;5.60;1.00;;;;;;;;;;6243446;23;20402;-78
2021/10/22 13:02:22;;;;;;;10.53;1.67;;;;;;;;;;6243938;23;20366;-78
2021/10/22 13:04:47;;;;;;;5.53;1.50;;;;;;;;;;6242694;22;20229;-77
2021/10/22 13:07:31;;;;;;;9.23;1.60;;;;;;;;;;6242397;23;20438;-77
2021/10/22 13:10:16;;;;;;;8.37;1.87;;;;;;;;;;6243177;23;20127;-75
2021/10/22 13:13:21;;;;;;;7.23;1.77;;;;;;;;;;6241700;23;20424;-77
2021/10/22 13:21:01;;;;;;;9.03;1.80;;;;;;;;;;6239679;23;20409;-77
2021/10/22 13:23:26;;;;;;;7.60;1.73;;;;;;;;;;6242450;22;20366;-77
2021/10/22 13:25:52;;;;;;;7.30;1.70;;;;;;;;;;6242661;23;20222;-77
2021/10/22 13:28:27;;;;;;;4.57;1.30;;;;;;;;;;6243352;23;20147;-78
2021/10/22 13:31:01;;;;;;;5.20;1.63;;;;;;;;;;6244289;23;20131;-77
2021/10/22 13:33:27;;;;;;;6.20;1.57;;;;;;;;;;6243009;22;20374;-78
2021/10/22 13:35:54;;;;;;;8.13;1.90;;;;;;;;;;6243360;23;20381;-78
2021/10/22 13:38:19;;;;;;;4.87;1.57;;;;;;;;;;6246563;23;20856;-79
2021/10/22 13:40:44;;;;;;;6.50;2.37;;;;;;;;;;6246178;23;20421;-80
2021/10/22 13:43:09;;;;;;;7.30;1.70;;;;;;;;;;6245257;23;20135;-79
2021/10/22 13:45:35;;;;;;;3.83;1.50;;;;;;;;;;6244782;22;20205;-77
2021/10/22 13:48:00;;;;;;;5.00;1.63;;;;;;;;;;6244688;23;20143;-78
2021/10/22 13:50:25;;;;;;;7.13;1.60;;;;;;;;;;6242975;23;20151;-78
2021/10/22 13:52:51;;;;;;;18.10;2.60;;;;;;;;;;6246227;23;20900;-79
2021/10/22 13:55:17;;;;;;;6.50;1.80;;;;;;;;;;6243383;22;20197;-78
2021/10/22 13:57:45;;;;;;;10.13;2.60;;;;;;;;;;6245460;23;20585;-79
2021/10/22 14:00:11;;;;;;;8.37;1.70;;;;;;;;;;6219072;23;20444;-78
2021/10/22 14:02:36;;;;;;;14.93;2.70;;;;;;;;;;6241547;23;20394;-78
2021/10/22 14:05:01;;;;;;;9.23;2.00;;;;;;;;;;6216000;23;20167;-78
2021/10/22 14:07:26;;;;;;;10.93;2.93;;;;;;;;;;6244751;23;20144;-79
2021/10/22 14:09:54;;;;;;;9.73;2.33;;;;;;;;;;6242171;23;20154;-78
2021/10/22 14:12:25;;;;;;;7.83;2.30;;;;;;;;;;6241284;23;20154;-79
2021/10/22 14:30:34;;;;;;;11.37;2.80;;;;;;;;;;6243824;23;20405;-78
2021/10/22 14:33:00;;;;;;;9.00;2.03;;;;;;;;;;6244213;23;20919;-78
2021/10/22 14:35:25;;;;;;;7.23;2.43;;;;;;;;;;6243457;22;20389;-76
2021/10/22 14:37:50;;;;;;;9.30;2.37;;;;;;;;;;6243725;23;20151;-75
2021/10/22 14:40:16;;;;;;;4.40;1.70;;;;;;;;;;6243872;23;20178;-79
2021/10/22 14:42:43;;;;;;;10.90;1.60;;;;;;;;;;6243478;23;20582;-77
2021/10/22 14:45:13;;;;;;;5.27;1.57;;;;;;;;;;6244463;22;20556;-77
2021/10/22 14:50:18;;;;;;;6.80;1.80;;;;;;;;;;6252222;23;20689;-77
2021/10/22 14:52:48;;;;;;;7.30;2.07;;;;;;;;;;6243969;23;20347;-78
2021/10/22 14:57:53;;;;;;;8.97;2.67;;;;;;;;;;6255819;23;20362;-79
2021/10/22 15:00:20;;;;;;;11.20;2.50;;;;;;;;;;6240897;23;20919;-79
2021/10/22 15:02:45;;;;;;;7.70;1.63;;;;;;;;;;6242462;23;20375;-75
2021/10/22 15:05:10;;;;;;;6.37;2.13;;;;;;;;;;6241549;22;20540;-79
2021/10/22 15:07:36;;;;;;;8.50;1.90;;;;;;;;;;6241810;23;20195;-75
2021/10/22 15:10:02;;;;;;;5.70;1.47;;;;;;;;;;6243627;23;20194;-77
2021/10/22 15:12:28;;;;;;;5.77;1.80;;;;;;;;;;6243047;23;20589;-80
2021/10/22 15:14:53;;;;;;;2.83;1.10;;;;;;;;;;6244128;22;20440;-79
2021/10/22 15:17:19;;;;;;;3.87;1.30;;;;;;;;;;6244072;23;20143;-77
2021/10/22 15:19:44;;;;;;;3.83;1.40;;;;;;;;;;6215650;23;20183;-77
2021/10/22 15:22:09;;;;;;;7.00;2.13;;;;;;;;;;6243459;23;20147;-77
2021/10/22 15:24:35;;;;;;;7.30;1.87;;;;;;;;;;6243963;22;20166;-76
2021/10/22 15:27:00;;;;;;;7.60;2.00;;;;;;;;;;6242633;23;20147;-77
2021/10/22 15:29:25;;;;;;;9.17;2.47;;;;;;;;;;6242173;23;20144;-77
2021/10/22 15:31:51;;;;;;;3.70;1.47;;;;;;;;;;6243005;23;20209;-76
2021/10/22 15:34:16;;;;;;;6.43;1.63;;;;;;;;;;6245517;22;20508;-77
2021/10/22 15:36:41;;;;;;;6.77;1.37;;;;;;;;;;6238591;23;20143;-78
2021/10/22 15:39:07;;;;;;;4.53;1.63;;;;;;;;;;6241276;23;20154;-78
2021/10/22 15:41:32;;;;;;;8.33;2.30;;;;;;;;;;6239658;23;20167;-77
2021/10/22 15:43:58;;;;;;;11.00;2.10;;;;;;;;;;6243853;22;20217;-77
2021/10/22 15:46:23;;;;;;;7.23;1.97;;;;;;;;;;6243867;23;20586;-77
2021/10/22 15:48:49;;;;;;;11.03;2.40;;;;;;;;;;6243809;23;20428;-76
2021/10/22 15:51:15;;;;;;;10.20;2.50;;;;;;;;;;6244883;23;20174;-77
2021/10/22 15:53:41;;;;;;;7.77;1.93;;;;;;;;;;6242770;22;20174;-77
2021/10/22 15:56:06;;;;;;;8.40;1.80;;;;;;;;;;6243748;23;20405;-78
2021/10/22 15:58:32;;;;;;;8.43;2.07;;;;;;;;;;6242791;23;20151;-79